KHJH

Hebron Municipal Airport

Hebron, Nebraska, USA
METAR KHJH 220215Z AUTO 17004KT 10SM CLR 21/14 A2997 RMK AO2 T02060140
Observed Flight Rules
May-22 @ 02:15 UTC (23 minutes ago) Visual Flight Rules
Wind Visibility Clouds
170° at 4 knots 10 miles
  • Clear skies
Temperatures Readings
Current 21°C / 70°F
Dewpoint 14°C / 57°F
Humidity 64%
Altimeter 29.97" Hg
Pressure 1015 hPa
Elevation 447
METAR KHJH 220215Z AUTO 17004KT 10SM CLR 21/14 A2997 RMK AO2 T02060140
Observed Flight Rules
May-22 @ 02:15 UTC
(23 minutes ago)
VFR
Wind Visibility
170° at 4 knots 10 miles
Clouds
  • Clear skies
Temperature Dewpoint
21°C / 70°F 14°C / 57°F
Humidity Altimeter Pressure
64% 29.97" Hg 1015 hPa